createdAt,value
2019-05-07T00:02:05.845Z,23.60
2019-05-07T00:04:34.276Z,21.23
2019-05-07T00:07:02.741Z,21.57
2019-05-07T00:09:32.337Z,19.30
2019-05-07T00:12:04.687Z,22.37
2019-05-07T00:14:32.011Z,22.53
2019-05-07T00:17:02.273Z,24.67
2019-05-07T00:19:32.442Z,21.50
2019-05-07T00:22:02.367Z,22.50
2019-05-07T00:24:32.972Z,20.53
2019-05-07T00:27:02.829Z,23.93
2019-05-07T00:29:32.144Z,22.33
2019-05-07T00:32:02.977Z,23.63
2019-05-07T00:34:32.896Z,21.77
2019-05-07T00:37:06.587Z,24.63
2019-05-07T00:39:35.045Z,25.10
2019-05-07T00:42:12.713Z,23.67
2019-05-07T00:44:54.982Z,22.37
2019-05-07T00:47:23.448Z,22.90
2019-05-07T00:49:52.338Z,22.03
2019-05-07T00:52:22.570Z,22.67
2019-05-07T00:54:53.068Z,24.30
2019-05-07T00:57:22.886Z,26.97
2019-05-07T00:59:52.484Z,23.13
2019-05-07T01:02:22.764Z,23.03
2019-05-07T01:04:53.203Z,22.57
2019-05-07T01:07:22.906Z,22.17
2019-05-07T01:09:52.392Z,25.97
2019-05-07T01:12:22.206Z,23.07
2019-05-07T01:14:52.913Z,25.33
2019-05-07T01:17:22.730Z,21.80
2019-05-07T01:19:53.277Z,25.73
2019-05-07T01:22:22.207Z,21.20
2019-05-07T01:24:52.461Z,24.57
2019-05-07T01:27:22.583Z,25.60
2019-05-07T01:29:52.790Z,27.23
2019-05-07T01:32:23.168Z,26.23
2019-05-07T01:34:53.263Z,22.77
2019-05-07T01:37:23.070Z,24.47
2019-05-07T01:39:52.911Z,19.90
2019-05-07T01:42:22.239Z,25.03
2019-05-07T01:44:52.837Z,21.63
2019-05-07T01:47:20.975Z,21.77
2019-05-07T01:49:49.494Z,22.23
2019-05-07T01:52:17.915Z,19.77
2019-05-07T01:54:47.497Z,19.17
2019-05-07T01:57:16.184Z,20.47
2019-05-07T01:59:44.660Z,19.50
2019-05-07T02:02:14.742Z,21.00
2019-05-07T02:04:47.334Z,18.13
2019-05-07T02:07:33.437Z,22.27
2019-05-07T02:10:20.259Z,22.13
2019-05-07T02:12:48.696Z,18.77
2019-05-07T02:15:17.395Z,21.63
2019-05-07T02:17:45.822Z,21.57
2019-05-07T02:20:14.437Z,21.10
2019-05-07T02:22:42.939Z,23.63
2019-05-07T02:25:12.660Z,20.00
2019-05-07T02:27:42.126Z,20.80
2019-05-07T02:30:14.482Z,19.20
2019-05-07T02:32:43.344Z,19.30
2019-05-07T02:35:13.599Z,20.03
2019-05-07T02:37:50.876Z,19.73
2019-05-07T02:40:19.093Z,18.83
2019-05-07T02:42:47.579Z,20.63
2019-05-07T02:45:33.396Z,19.37
2019-05-07T02:48:03.526Z,21.40
2019-05-07T02:50:39.862Z,20.30
2019-05-07T02:53:26.501Z,23.63
2019-05-07T02:55:56.596Z,19.77
2019-05-07T02:58:25.024Z,18.10
2019-05-07T03:00:53.546Z,18.23
2019-05-07T03:03:24.741Z,21.47
2019-05-07T03:05:53.751Z,18.50
2019-05-07T03:08:26.924Z,24.57
2019-05-07T03:10:53.143Z,20.90
2019-05-07T03:13:23.680Z,20.77
2019-05-07T03:15:54.051Z,23.23
2019-05-07T03:18:23.475Z,23.10
2019-05-07T03:21:03.180Z,23.27
2019-05-07T03:23:34.049Z,23.73
2019-05-07T03:26:04.187Z,18.97
2019-05-07T03:28:34.532Z,22.23
2019-05-07T03:31:05.795Z,21.27
2019-05-07T03:33:37.207Z,23.70
2019-05-07T03:36:08.136Z,23.23
2019-05-07T03:38:36.891Z,20.90
2019-05-07T03:41:05.390Z,22.10
2019-05-07T03:43:33.836Z,21.87
2019-05-07T03:46:09.984Z,23.00
2019-05-07T03:48:40.095Z,18.20
2019-05-07T03:51:08.591Z,20.60
2019-05-07T03:53:37.060Z,20.23
2019-05-07T03:56:05.485Z,21.57
2019-05-07T03:58:34.368Z,23.70
2019-05-07T04:01:04.324Z,23.97
2019-05-07T04:03:34.415Z,20.23
2019-05-07T04:06:04.012Z,21.63
2019-05-07T04:08:33.574Z,21.73
2019-05-07T04:11:03.534Z,21.23
2019-05-07T04:13:33.386Z,19.63
2019-05-07T04:16:04.074Z,22.03
2019-05-07T04:18:33.132Z,20.63
2019-05-07T04:21:03.852Z,22.57
2019-05-07T04:23:34.195Z,22.70
2019-05-07T04:26:06.677Z,21.37
2019-05-07T04:28:54.010Z,20.70
2019-05-07T04:31:24.185Z,22.50
2019-05-07T04:33:53.438Z,21.43
2019-05-07T04:36:23.638Z,22.33
2019-05-07T04:38:53.279Z,22.50
2019-05-07T04:41:23.378Z,20.97
2019-05-07T04:43:54.074Z,25.10
2019-05-07T04:46:23.624Z,20.03
2019-05-07T04:48:52.790Z,24.43
2019-05-07T04:51:23.416Z,19.67
2019-05-07T04:53:54.074Z,24.20
2019-05-07T04:56:23.809Z,20.77
2019-05-07T04:58:53.070Z,19.30
2019-05-07T05:01:23.753Z,19.67
2019-05-07T05:03:54.084Z,20.40
2019-05-07T05:06:24.114Z,21.27
2019-05-07T05:08:56.071Z,19.63
2019-05-07T05:11:23.664Z,20.20
2019-05-07T05:13:53.323Z,19.30
2019-05-07T05:16:26.065Z,19.63
2019-05-07T05:18:55.532Z,19.90
2019-05-07T05:21:25.770Z,20.67
2019-05-07T05:23:58.832Z,19.00
2019-05-07T05:26:27.359Z,18.87
2019-05-07T05:28:55.787Z,19.30
2019-05-07T05:31:24.236Z,23.13
2019-05-07T05:33:52.776Z,18.73
2019-05-07T05:36:22.173Z,19.03
2019-05-07T05:38:52.852Z,17.87
2019-05-07T05:41:22.617Z,18.83
2019-05-07T05:44:07.627Z,19.63
2019-05-07T05:46:36.158Z,20.20
2019-05-07T05:49:04.755Z,21.67
2019-05-07T05:51:34.836Z,23.87
2019-05-07T05:54:22.316Z,20.77
2019-05-07T05:56:52.588Z,27.27
2019-05-07T05:59:27.832Z,20.33
2019-05-07T06:02:03.362Z,22.00
2019-05-07T06:04:48.970Z,19.00
2019-05-07T06:07:25.238Z,18.43
2019-05-07T06:09:55.375Z,20.07
2019-05-07T06:12:32.789Z,20.10
2019-05-07T06:15:03.201Z,19.67
2019-05-07T06:17:36.318Z,18.07
2019-05-07T06:20:24.269Z,17.40
2019-05-07T06:23:12.999Z,18.03
2019-05-07T06:25:43.231Z,17.07
2019-05-07T06:28:12.636Z,23.93
2019-05-07T06:30:41.883Z,23.13
2019-05-07T06:33:12.396Z,22.50
2019-05-07T06:35:42.293Z,18.53
2019-05-07T06:38:12.432Z,20.47
2019-05-07T06:41:02.692Z,23.13
2019-05-07T06:43:32.991Z,21.43
2019-05-07T06:46:03.278Z,28.03
2019-05-07T06:48:42.282Z,25.77
2019-05-07T06:51:03.060Z,22.17
2019-05-07T06:53:33.308Z,23.43
2019-05-07T06:56:03.210Z,22.33
2019-05-07T06:58:36.667Z,21.50
2019-05-07T07:01:16.014Z,20.37
2019-05-07T07:04:02.690Z,21.87
2019-05-07T07:06:33.024Z,20.47
2019-05-07T07:09:03.258Z,20.17
2019-05-07T07:11:36.420Z,18.53
2019-05-07T07:14:05.451Z,20.97
2019-05-07T07:16:33.972Z,18.67
2019-05-07T07:19:03.364Z,18.47
2019-05-07T07:21:32.696Z,18.57
2019-05-07T07:24:03.031Z,19.87
2019-05-07T07:26:33.506Z,20.20
2019-05-07T07:29:02.127Z,19.37
2019-05-07T07:31:42.608Z,19.53
2019-05-07T07:34:13.038Z,21.00
2019-05-07T07:37:02.403Z,19.40
2019-05-07T07:39:18.925Z,17.73
2019-05-07T07:41:48.998Z,19.73
2019-05-07T07:44:17.457Z,21.97
2019-05-07T07:46:45.905Z,19.97
2019-05-07T07:49:15.277Z,18.63
2019-05-07T07:51:45.660Z,23.77
2019-05-07T07:54:14.271Z,19.27
2019-05-07T07:56:56.913Z,19.63
2019-05-07T07:59:35.963Z,21.83
2019-05-07T08:02:09.351Z,20.57
2019-05-07T08:04:37.825Z,22.70
2019-05-07T08:07:06.334Z,20.80
2019-05-07T08:09:35.339Z,21.27
2019-05-07T08:12:05.546Z,24.10
2019-05-07T08:14:34.210Z,21.03
2019-05-07T08:17:04.436Z,20.20
2019-05-07T08:19:33.111Z,21.53
2019-05-07T08:22:02.861Z,21.67
2019-05-07T08:24:32.195Z,21.77
2019-05-07T08:27:02.447Z,19.97
2019-05-07T08:29:32.520Z,20.53
2019-05-07T08:32:22.390Z,25.97
2019-05-07T08:34:52.650Z,20.63
2019-05-07T08:37:24.241Z,22.90
2019-05-07T08:39:52.050Z,21.00
2019-05-07T08:42:22.756Z,18.10
2019-05-07T08:45:04.654Z,19.27
2019-05-07T08:47:49.642Z,21.97
2019-05-07T08:50:18.252Z,20.47
2019-05-07T08:52:46.777Z,24.17
2019-05-07T08:55:16.271Z,24.33
2019-05-07T08:57:46.001Z,22.47
2019-05-07T09:00:16.549Z,21.60
2019-05-07T09:02:45.000Z,21.57
2019-05-07T09:05:13.842Z,24.03
2019-05-07T09:07:42.647Z,22.67
2019-05-07T09:10:12.675Z,24.37
2019-05-07T09:12:42.984Z,24.17
2019-05-07T09:15:12.467Z,24.37
2019-05-07T09:17:42.356Z,20.03
2019-05-07T09:20:12.568Z,24.13
2019-05-07T09:22:42.703Z,21.97
2019-05-07T09:25:12.924Z,21.80
2019-05-07T09:27:46.407Z,22.90
2019-05-07T09:30:22.062Z,19.77
2019-05-07T09:32:55.379Z,22.00
2019-05-07T09:35:25.454Z,20.67
2019-05-07T09:37:53.917Z,18.60
2019-05-07T09:40:22.409Z,21.40
2019-05-07T09:42:52.535Z,21.00
2019-05-07T09:45:22.440Z,18.17
2019-05-07T09:47:52.242Z,22.27
2019-05-07T09:50:22.070Z,18.67
2019-05-07T09:52:51.852Z,20.70
2019-05-07T09:55:20.523Z,19.43
2019-05-07T09:57:49.023Z,20.03
2019-05-07T10:00:20.184Z,21.17
2019-05-07T10:02:48.800Z,21.40
2019-05-07T10:05:17.684Z,21.77
2019-05-07T10:07:46.231Z,23.37
2019-05-07T10:10:15.043Z,19.20
2019-05-07T10:13:02.004Z,17.33
2019-05-07T10:15:32.919Z,17.17
2019-05-07T10:18:04.952Z,15.97
2019-05-07T10:20:33.863Z,18.03
2019-05-07T10:23:02.642Z,19.97
2019-05-07T10:25:35.991Z,16.37
2019-05-07T10:28:04.489Z,21.67
2019-05-07T10:30:33.295Z,19.37
2019-05-07T10:33:01.922Z,17.60
2019-05-07T10:35:33.095Z,19.00
2019-05-07T10:38:01.953Z,17.20
2019-05-07T10:40:32.765Z,16.63
2019-05-07T10:43:01.358Z,19.00
2019-05-07T10:45:34.607Z,16.10
2019-05-07T10:48:22.028Z,17.73
2019-05-07T10:50:57.947Z,16.13
2019-05-07T10:53:26.456Z,15.00
2019-05-07T10:55:54.936Z,13.30
2019-05-07T10:58:23.361Z,17.13
2019-05-07T11:00:52.364Z,16.20
2019-05-07T11:03:21.903Z,16.93
2019-05-07T11:05:50.581Z,12.97
2019-05-07T11:08:19.038Z,14.60
2019-05-07T11:10:47.585Z,13.53
2019-05-07T11:13:16.809Z,16.33
2019-05-07T11:15:46.914Z,15.27
2019-05-07T11:18:25.995Z,17.17
2019-05-07T11:20:54.644Z,14.93
2019-05-07T11:23:23.187Z,14.63
2019-05-07T11:25:52.680Z,14.67
2019-05-07T11:28:22.723Z,15.60
2019-05-07T11:30:51.543Z,17.33
2019-05-07T11:33:21.969Z,14.57
2019-05-07T11:35:52.634Z,15.87
2019-05-07T11:38:24.191Z,13.53
2019-05-07T11:40:51.782Z,13.77
2019-05-07T11:43:22.279Z,13.57
2019-05-07T11:45:54.312Z,15.10
2019-05-07T11:48:24.362Z,15.70
2019-05-07T11:51:03.268Z,15.77
2019-05-07T11:53:28.983Z,14.57
2019-05-07T11:55:57.475Z,14.57
2019-05-07T11:58:25.912Z,17.43
2019-05-07T12:00:58.673Z,16.90
2019-05-07T12:03:27.167Z,17.07
2019-05-07T12:05:55.658Z,14.83
2019-05-07T12:08:37.396Z,14.33
2019-05-07T12:10:54.371Z,17.20
2019-05-07T12:13:22.801Z,18.60
2019-05-07T12:15:52.208Z,20.30
2019-05-07T12:18:22.670Z,17.90
2019-05-07T12:20:53.867Z,18.27
2019-05-07T12:23:22.586Z,18.73
2019-05-07T12:26:12.553Z,16.33
2019-05-07T12:28:41.852Z,18.03
2019-05-07T12:31:22.430Z,18.13
2019-05-07T12:33:58.495Z,18.60
2019-05-07T12:36:27.219Z,19.00
2019-05-07T12:38:55.695Z,16.17
2019-05-07T12:41:30.046Z,18.30
2019-05-07T12:44:02.429Z,16.53
2019-05-07T12:46:33.381Z,19.43
2019-05-07T12:49:03.287Z,15.30
2019-05-07T12:51:37.385Z,17.07
2019-05-07T12:54:18.103Z,19.30
2019-05-07T12:56:46.694Z,16.33
2019-05-07T12:59:16.586Z,16.63
2019-05-07T13:01:59.307Z,14.50
2019-05-07T13:04:35.866Z,15.27
2019-05-07T13:07:06.374Z,17.17
2019-05-07T13:09:34.848Z,13.80
2019-05-07T13:12:03.351Z,15.03
2019-05-07T13:14:31.843Z,16.30
2019-05-07T13:17:00.251Z,15.93
2019-05-07T13:19:28.716Z,15.17
2019-05-07T13:21:57.151Z,14.47
2019-05-07T13:24:25.627Z,15.13
2019-05-07T13:26:54.193Z,16.17
2019-05-07T13:29:22.624Z,14.00
2019-05-07T13:31:54.485Z,14.23
2019-05-07T13:34:23.281Z,14.67
2019-05-07T13:36:54.551Z,12.87
2019-05-07T13:39:28.518Z,13.60
2019-05-07T13:42:21.599Z,15.63
2019-05-07T13:44:51.969Z,13.70
2019-05-07T13:47:25.412Z,15.87
2019-05-07T13:49:54.806Z,12.90
2019-05-07T13:52:24.475Z,15.30
2019-05-07T13:54:53.979Z,13.33
2019-05-07T13:57:22.830Z,16.83
2019-05-07T13:59:53.090Z,15.00
2019-05-07T14:02:23.767Z,15.30
2019-05-07T14:04:52.826Z,15.67
2019-05-07T14:07:21.846Z,13.47
2019-05-07T14:09:52.717Z,15.53
2019-05-07T14:12:22.931Z,15.30
2019-05-07T14:14:53.075Z,16.70
2019-05-07T14:17:23.848Z,15.33
2019-05-07T14:19:53.111Z,15.63
2019-05-07T14:22:22.695Z,14.33
2019-05-07T14:24:52.959Z,12.97
2019-05-07T14:27:22.275Z,16.23
2019-05-07T14:29:51.997Z,17.17
2019-05-07T14:32:31.296Z,14.50
2019-05-07T14:35:17.615Z,11.93
2019-05-07T14:37:53.151Z,14.10
2019-05-07T14:40:22.301Z,13.80
2019-05-07T14:42:53.564Z,16.10
2019-05-07T14:45:23.847Z,14.47
2019-05-07T14:47:52.499Z,13.50
2019-05-07T14:50:22.613Z,13.70
2019-05-07T14:52:54.803Z,14.00
2019-05-07T14:55:22.269Z,11.63
2019-05-07T14:57:52.425Z,13.97
2019-05-07T15:00:22.583Z,12.07
2019-05-07T15:03:12.493Z,14.30
2019-05-07T15:05:42.251Z,12.23
2019-05-07T15:08:13.932Z,14.57
2019-05-07T15:10:41.886Z,12.80
2019-05-07T15:13:12.588Z,13.83
2019-05-07T15:15:41.328Z,11.53
2019-05-07T15:18:12.237Z,14.57
2019-05-07T15:20:42.012Z,13.67
2019-05-07T15:23:27.491Z,11.67
2019-05-07T15:25:57.520Z,10.27
2019-05-07T15:28:27.079Z,13.53
2019-05-07T15:31:00.008Z,12.20
2019-05-07T15:33:28.653Z,11.30
2019-05-07T15:35:57.190Z,13.93
2019-05-07T15:38:25.693Z,13.87
2019-05-07T15:40:54.184Z,12.07
2019-05-07T15:43:22.691Z,12.33
2019-05-07T15:45:52.469Z,13.80
2019-05-07T15:48:22.017Z,11.03
2019-05-07T15:50:51.997Z,12.43
2019-05-07T15:53:32.365Z,11.37
2019-05-07T15:56:01.817Z,10.20
2019-05-07T15:58:30.331Z,10.40
2019-05-07T16:00:58.801Z,10.43
2019-05-07T16:03:32.149Z,10.70
2019-05-07T16:06:03.601Z,11.70
2019-05-07T16:08:32.702Z,12.10
2019-05-07T16:11:01.579Z,10.97
2019-05-07T16:13:49.257Z,9.27
2019-05-07T16:16:17.740Z,9.53
2019-05-07T16:19:03.165Z,9.93
2019-05-07T16:21:32.452Z,9.73
2019-05-07T16:24:01.208Z,9.57
2019-05-07T16:26:29.799Z,8.07
2019-05-07T16:28:58.255Z,8.37
2019-05-07T16:31:26.776Z,8.40
2019-05-07T16:33:55.242Z,9.37
2019-05-07T16:36:23.716Z,7.83
2019-05-07T16:38:52.683Z,8.23
2019-05-07T16:41:22.373Z,12.03
2019-05-07T16:43:52.416Z,11.47
2019-05-07T16:46:22.382Z,9.27
2019-05-07T16:48:51.135Z,7.43
2019-05-07T16:51:19.619Z,7.03
2019-05-07T16:53:48.083Z,9.67
2019-05-07T16:56:16.616Z,9.00
2019-05-07T16:58:49.228Z,9.93
2019-05-07T17:01:18.066Z,6.93
2019-05-07T17:03:54.483Z,7.70
2019-05-07T17:06:25.140Z,6.57
2019-05-07T17:08:54.487Z,8.53
2019-05-07T17:11:22.992Z,6.53
2019-05-07T17:13:51.975Z,7.23
2019-05-07T17:16:22.658Z,6.33
2019-05-07T17:18:51.880Z,7.00
2019-05-07T17:21:21.767Z,6.77
2019-05-07T17:23:51.919Z,7.27
2019-05-07T17:26:20.666Z,6.80
2019-05-07T17:28:49.264Z,7.20
2019-05-07T17:31:17.806Z,8.50
2019-05-07T17:33:46.401Z,9.43
2019-05-07T17:36:15.017Z,8.47
2019-05-07T17:38:43.514Z,10.27
2019-05-07T17:41:19.990Z,9.33
2019-05-07T17:43:42.231Z,6.53
2019-05-07T17:46:12.268Z,8.33
2019-05-07T17:48:42.761Z,8.40
2019-05-07T17:51:12.923Z,8.47
2019-05-07T17:53:50.391Z,5.73
2019-05-07T17:56:12.806Z,5.80
2019-05-07T17:58:42.687Z,7.13
2019-05-07T18:01:11.547Z,5.07
2019-05-07T18:03:42.800Z,6.00
2019-05-07T18:06:12.551Z,11.83
2019-05-07T18:08:41.350Z,5.87
2019-05-07T18:11:20.120Z,6.53
2019-05-07T18:13:40.028Z,7.43
2019-05-07T18:16:26.207Z,7.00
2019-05-07T18:18:54.650Z,6.33
2019-05-07T18:21:23.293Z,6.63
2019-05-07T18:23:51.979Z,6.57
2019-05-07T18:26:29.742Z,7.17
2019-05-07T18:28:52.200Z,4.80
2019-05-07T18:31:22.701Z,8.40
2019-05-07T18:33:55.487Z,7.30
2019-05-07T18:36:24.070Z,7.77
2019-05-07T18:38:52.962Z,14.67
2019-05-07T18:41:22.336Z,27.40
2019-05-07T18:43:54.367Z,10.03
2019-05-07T18:46:22.082Z,8.13
2019-05-07T18:48:51.867Z,5.20
2019-05-07T18:51:20.649Z,8.17
2019-05-07T18:53:49.166Z,5.60
2019-05-07T18:56:17.727Z,6.80
2019-05-07T18:58:46.660Z,8.97
2019-05-07T19:01:17.112Z,8.80
2019-05-07T19:03:45.626Z,6.73
2019-05-07T19:06:14.263Z,7.07
2019-05-07T19:08:42.691Z,7.03
2019-05-07T19:11:12.370Z,6.50
2019-05-07T19:13:42.044Z,7.27
2019-05-07T19:16:12.725Z,6.40
2019-05-07T19:18:43.104Z,7.80
2019-05-07T19:21:11.832Z,6.10
2019-05-07T19:23:42.363Z,8.10
2019-05-07T19:26:13.139Z,9.03
2019-05-07T19:28:41.576Z,6.37
2019-05-07T19:31:12.280Z,9.60
2019-05-07T19:33:41.905Z,7.90
2019-05-07T19:36:10.527Z,7.10
2019-05-07T19:38:39.079Z,5.83
2019-05-07T19:41:07.860Z,8.00
2019-05-07T19:43:36.472Z,6.93
2019-05-07T19:46:05.056Z,6.50
2019-05-07T19:48:33.597Z,6.67
2019-05-07T19:51:02.867Z,6.73
2019-05-07T19:53:32.679Z,10.57
2019-05-07T19:56:05.544Z,8.07
2019-05-07T19:58:34.150Z,8.37
2019-05-07T20:01:04.096Z,8.77
2019-05-07T20:03:32.615Z,6.63
2019-05-07T20:06:02.432Z,27.73
2019-05-07T20:08:32.335Z,25.60
2019-05-07T20:11:05.737Z,10.23
2019-05-07T20:13:34.308Z,10.83
2019-05-07T20:16:07.268Z,7.30
2019-05-07T20:18:35.928Z,7.63
2019-05-07T20:21:04.571Z,7.17
2019-05-07T20:23:33.182Z,7.83
2019-05-07T20:26:03.024Z,7.77
2019-05-07T20:28:32.593Z,8.30
2019-05-07T20:31:01.653Z,8.10
2019-05-07T20:33:29.896Z,8.13
2019-05-07T20:35:58.415Z,8.43
2019-05-07T20:38:26.939Z,8.63
2019-05-07T20:40:55.412Z,9.10
2019-05-07T20:43:23.887Z,8.40
2019-05-07T20:45:52.396Z,6.67
2019-05-07T20:48:22.679Z,8.43
2019-05-07T20:50:52.054Z,8.90
2019-05-07T20:53:22.410Z,7.63
2019-05-07T20:55:53.044Z,8.63
2019-05-07T20:58:22.194Z,7.53
2019-05-07T21:00:52.602Z,9.10
2019-05-07T21:03:23.382Z,8.03
2019-05-07T21:05:52.955Z,9.40
2019-05-07T21:08:22.846Z,7.27
2019-05-07T21:10:53.650Z,8.47
2019-05-07T21:13:30.129Z,8.40
2019-05-07T21:15:52.628Z,8.63
2019-05-07T21:18:23.220Z,6.77
2019-05-07T21:20:52.922Z,11.00
2019-05-07T21:23:23.114Z,8.77
2019-05-07T21:25:52.946Z,10.30
2019-05-07T21:28:21.827Z,7.33
2019-05-07T21:30:52.236Z,7.43
2019-05-07T21:33:22.639Z,7.13
2019-05-07T21:35:52.346Z,7.83
2019-05-07T21:38:22.298Z,6.47
2019-05-07T21:40:51.207Z,8.43
2019-05-07T21:43:21.885Z,8.57
2019-05-07T21:45:49.830Z,7.83
2019-05-07T21:48:18.392Z,8.83
2019-05-07T21:50:46.900Z,9.23
2019-05-07T21:53:19.786Z,8.67
2019-05-07T21:56:02.303Z,9.03
2019-05-07T21:58:33.465Z,8.87
2019-05-07T22:01:15.317Z,8.77
2019-05-07T22:03:46.027Z,7.20
2019-05-07T22:06:14.557Z,8.70
2019-05-07T22:08:42.975Z,7.83
2019-05-07T22:11:12.511Z,7.03
2019-05-07T22:13:43.408Z,8.50
2019-05-07T22:16:13.091Z,8.10
2019-05-07T22:18:42.720Z,8.97
2019-05-07T22:21:12.508Z,8.30
2019-05-07T22:23:42.866Z,7.80
2019-05-07T22:26:20.211Z,6.77
2019-05-07T22:28:42.124Z,7.00
2019-05-07T22:31:18.115Z,7.33
2019-05-07T22:34:04.728Z,9.30
2019-05-07T22:36:33.244Z,7.23
2019-05-07T22:39:03.402Z,10.13
2019-05-07T22:41:31.983Z,8.63
2019-05-07T22:44:02.382Z,6.47
2019-05-07T22:46:32.628Z,7.30
2019-05-07T22:49:02.935Z,6.70
2019-05-07T22:51:31.044Z,8.23
2019-05-07T22:53:59.492Z,8.87
2019-05-07T22:56:34.926Z,7.43
2019-05-07T22:58:59.873Z,7.47
2019-05-07T23:01:28.365Z,8.73
2019-05-07T23:03:56.829Z,8.07
2019-05-07T23:06:25.251Z,8.23
2019-05-07T23:08:53.708Z,10.57
2019-05-07T23:11:22.903Z,9.90
2019-05-07T23:13:54.366Z,8.50
2019-05-07T23:16:23.157Z,7.73
2019-05-07T23:18:51.959Z,9.10
2019-05-07T23:21:24.394Z,7.67
2019-05-07T23:23:52.631Z,7.50
2019-05-07T23:26:23.123Z,7.83
2019-05-07T23:28:51.868Z,8.57
2019-05-07T23:31:22.690Z,6.97
2019-05-07T23:33:52.335Z,9.17
2019-05-07T23:36:22.484Z,8.30
2019-05-07T23:38:52.055Z,9.60
2019-05-07T23:41:25.315Z,8.20
2019-05-07T23:44:12.466Z,7.90
2019-05-07T23:46:42.770Z,8.97
2019-05-07T23:49:12.455Z,8.97
2019-05-07T23:51:42.102Z,8.37
2019-05-07T23:54:12.106Z,8.53
2019-05-07T23:56:42.685Z,9.07
2019-05-07T23:59:12.920Z,7.73
